createdAt,value
2022-09-05T00:02:51.381Z,16.02
2022-09-05T00:06:05.430Z,15.95
2022-09-05T00:09:14.453Z,15.90
2022-09-05T00:12:19.276Z,15.95
2022-09-05T00:15:31.018Z,15.97
2022-09-05T00:21:17.720Z,16.03
2022-09-05T00:24:21.706Z,16.05
2022-09-05T00:26:09.275Z,16.08
2022-09-05T00:30:43.917Z,16.11
2022-09-05T00:33:16.753Z,15.98
2022-09-05T00:36:31.934Z,16.01
2022-09-05T00:39:37.042Z,15.99
2022-09-05T00:42:40.099Z,16.04
2022-09-05T00:45:47.770Z,16.05
2022-09-05T00:48:56.366Z,16.06
2022-09-05T00:52:06.055Z,16.01
2022-09-05T00:55:22.227Z,15.91
2022-09-05T00:58:59.631Z,15.89
2022-09-05T01:02:13.088Z,15.87
2022-09-05T01:05:39.345Z,15.92
2022-09-05T01:08:55.655Z,15.91
2022-09-05T01:12:20.431Z,15.89
2022-09-05T01:15:32.695Z,15.82
2022-09-05T01:18:47.976Z,15.79
2022-09-05T01:22:26.675Z,15.68
2022-09-05T01:25:47.056Z,15.69
2022-09-05T01:29:15.939Z,15.51
2022-09-05T01:32:34.421Z,15.64
2022-09-05T01:36:04.196Z,15.54
2022-09-05T01:40:10.759Z,15.58
2022-09-05T01:42:49.004Z,15.45
2022-09-05T01:45:58.497Z,15.53
2022-09-05T01:49:08.807Z,15.54
2022-09-05T01:52:27.800Z,15.55
2022-09-05T01:56:03.949Z,15.53
2022-09-05T01:59:26.450Z,15.51
2022-09-05T02:02:50.725Z,15.47
2022-09-05T02:06:12.237Z,15.37
2022-09-05T02:09:37.526Z,15.43
2022-09-05T02:12:58.436Z,15.35
2022-09-05T02:16:13.573Z,15.38
2022-09-05T02:19:22.686Z,15.43
2022-09-05T02:22:34.504Z,15.35
2022-09-05T02:26:01.612Z,15.38
2022-09-05T02:29:28.412Z,15.39
2022-09-05T02:32:43.232Z,15.41
2022-09-05T02:35:57.095Z,15.44
2022-09-05T02:43:42.380Z,15.46
2022-09-05T02:45:19.570Z,15.51
2022-09-05T02:46:04.154Z,15.44
2022-09-05T02:49:14.015Z,15.37
2022-09-05T02:57:28.763Z,15.41
2022-09-05T02:57:35.413Z,15.47
2022-09-05T03:00:08.221Z,15.40
2022-09-05T03:03:24.621Z,15.33
2022-09-05T03:06:35.591Z,15.40
2022-09-05T03:09:56.748Z,15.31
2022-09-05T03:13:28.610Z,15.30
2022-09-05T03:17:14.971Z,15.28
2022-09-05T03:20:46.958Z,15.25
2022-09-05T03:24:24.073Z,15.17
2022-09-05T03:28:13.127Z,15.16
2022-09-05T03:31:40.853Z,15.09
2022-09-05T03:35:21.371Z,14.93
2022-09-05T03:38:54.617Z,14.88
2022-09-05T03:42:19.482Z,14.70
2022-09-05T03:45:45.085Z,14.57
2022-09-05T03:51:07.925Z,14.65
2022-09-05T03:57:13.435Z,14.60
2022-09-05T03:57:14.631Z,14.66
2022-09-05T04:00:08.307Z,14.65
2022-09-05T04:08:10.571Z,14.73
2022-09-05T04:08:14.138Z,14.75
2022-09-05T04:10:27.726Z,14.83
2022-09-05T04:13:35.124Z,14.83
2022-09-05T04:16:51.072Z,14.82
2022-09-05T04:20:00.252Z,14.87
2022-09-05T04:23:13.991Z,14.75
2022-09-05T04:26:53.038Z,14.72
2022-09-05T04:30:00.890Z,14.74
2022-09-05T04:33:09.496Z,14.65
2022-09-05T04:36:21.088Z,14.58
2022-09-05T04:39:28.497Z,14.56
2022-09-05T04:42:31.734Z,14.67
2022-09-05T04:45:41.037Z,14.71
2022-09-05T04:48:51.135Z,14.76
2022-09-05T04:52:31.613Z,14.72
2022-09-05T04:55:42.493Z,14.83
2022-09-05T05:01:22.700Z,14.87
2022-09-05T05:06:11.746Z,14.93
2022-09-05T05:06:17.936Z,14.91
2022-09-05T05:09:27.119Z,15.00
2022-09-05T05:18:00.361Z,15.01
2022-09-05T05:18:09.262Z,15.07
2022-09-05T05:20:40.091Z,15.14
2022-09-05T05:23:14.976Z,15.23
2022-09-05T05:26:24.140Z,15.31
2022-09-05T05:29:40.022Z,15.39
2022-09-05T05:32:46.774Z,15.46
2022-09-05T05:35:51.143Z,15.48
2022-09-05T05:38:59.367Z,15.52
2022-09-05T05:42:20.022Z,15.56
2022-09-05T05:45:29.059Z,15.62
2022-09-05T05:48:37.537Z,15.66
2022-09-05T05:52:02.022Z,15.76
2022-09-05T05:55:50.319Z,15.83
2022-09-05T05:58:59.677Z,15.89
2022-09-05T06:02:34.668Z,15.96
2022-09-05T06:05:59.636Z,16.06
2022-09-05T06:14:50.494Z,16.12
2022-09-05T06:14:57.994Z,16.24
2022-09-05T06:17:30.355Z,16.44
2022-09-05T06:22:09.392Z,16.52
2022-09-05T06:25:18.814Z,16.61
2022-09-05T06:28:32.834Z,16.76
2022-09-05T06:31:49.576Z,16.82
2022-09-05T06:35:17.989Z,16.95
2022-09-05T06:38:29.865Z,17.00
2022-09-05T06:41:44.178Z,17.00
2022-09-05T06:45:15.911Z,17.12
2022-09-05T06:48:45.616Z,17.21
2022-09-05T06:52:28.847Z,17.37
2022-09-05T06:55:50.226Z,17.48
2022-09-05T06:59:35.835Z,17.72
2022-09-05T07:02:58.811Z,17.81
2022-09-05T07:06:09.188Z,17.96
2022-09-05T07:09:31.800Z,18.06
2022-09-05T07:12:45.785Z,18.16
2022-09-05T07:15:57.431Z,18.36
2022-09-05T07:19:10.276Z,18.44
2022-09-05T07:22:47.010Z,18.60
2022-09-05T07:25:54.430Z,18.76
2022-09-05T07:29:03.632Z,18.99
2022-09-05T07:32:10.891Z,19.13
2022-09-05T07:35:18.926Z,19.26
2022-09-05T07:38:35.306Z,19.41
2022-09-05T07:41:54.162Z,19.49
2022-09-05T07:45:00.030Z,19.63
2022-09-05T07:48:06.232Z,19.86
2022-09-05T07:55:26.254Z,19.81
2022-09-05T07:57:09.635Z,19.86
2022-09-05T07:58:11.671Z,19.95
2022-09-05T08:01:15.877Z,20.35
2022-09-05T08:04:26.470Z,20.22
2022-09-05T08:07:48.949Z,20.49
2022-09-05T08:11:22.090Z,20.58
2022-09-05T08:14:44.584Z,20.83
2022-09-05T08:17:58.617Z,21.01
2022-09-05T08:21:09.302Z,21.15
2022-09-05T08:24:21.159Z,21.11
2022-09-05T08:27:26.798Z,21.15
2022-09-05T08:30:39.248Z,21.23
2022-09-05T08:33:43.483Z,21.32
2022-09-05T08:36:49.141Z,21.43
2022-09-05T08:39:57.576Z,21.59
2022-09-05T08:46:36.041Z,21.85
2022-09-05T08:47:00.617Z,21.82
2022-09-05T08:50:27.067Z,21.97
2022-09-05T08:53:48.996Z,22.08
2022-09-05T08:56:58.187Z,22.10
2022-09-05T09:00:20.699Z,22.35
2022-09-05T09:03:33.592Z,22.34
2022-09-05T09:07:36.763Z,22.42
2022-09-05T09:10:40.392Z,22.34
2022-09-05T09:13:53.221Z,22.44
2022-09-05T09:17:06.760Z,22.53
2022-09-05T09:20:30.965Z,22.59
2022-09-05T09:23:46.003Z,22.83
2022-09-05T09:26:56.438Z,22.88
2022-09-05T09:30:05.741Z,23.12
2022-09-05T09:33:11.219Z,23.08
2022-09-05T09:36:42.612Z,23.22
2022-09-05T09:40:13.773Z,23.35
2022-09-05T09:43:27.293Z,23.49
2022-09-05T09:46:39.602Z,23.88
2022-09-05T09:50:09.512Z,23.98
2022-09-05T09:53:23.633Z,23.98
2022-09-05T09:57:01.217Z,24.00
2022-09-05T10:00:09.660Z,23.85
2022-09-05T10:06:52.528Z,23.94
2022-09-05T10:10:49.914Z,24.15
2022-09-05T10:15:01.905Z,24.13
2022-09-05T10:18:39.826Z,24.32
2022-09-05T10:25:28.985Z,24.44
2022-09-05T10:28:40.725Z,24.51
2022-09-05T10:34:52.152Z,24.53
2022-09-05T10:35:26.704Z,24.61
2022-09-05T10:38:40.411Z,24.50
2022-09-05T10:41:50.953Z,24.49
2022-09-05T10:44:56.734Z,24.42
2022-09-05T10:48:13.247Z,24.52
2022-09-05T10:51:27.852Z,24.67
2022-09-05T10:54:41.243Z,24.61
2022-09-05T10:57:57.300Z,24.89
2022-09-05T11:02:23.328Z,24.65
2022-09-05T11:04:49.843Z,24.56
2022-09-05T11:08:02.903Z,24.50
2022-09-05T11:11:26.045Z,24.61
2022-09-05T11:14:50.424Z,24.75
2022-09-05T11:17:59.030Z,24.70
2022-09-05T11:21:08.852Z,24.73
2022-09-05T11:24:27.531Z,24.64
2022-09-05T11:27:35.511Z,24.62
2022-09-05T11:30:44.173Z,24.65
2022-09-05T11:39:46.113Z,24.68
2022-09-05T11:40:06.456Z,24.55
2022-09-05T11:42:30.337Z,24.54
2022-09-05T11:46:08.771Z,24.73
2022-09-05T11:49:41.062Z,24.79
2022-09-05T11:53:11.989Z,24.94
2022-09-05T11:56:54.107Z,25.11
2022-09-05T12:00:32.590Z,25.07
2022-09-05T12:07:31.781Z,24.89
2022-09-05T12:10:51.686Z,24.91
2022-09-05T12:14:21.419Z,24.67
2022-09-05T12:17:35.120Z,24.55
2022-09-05T12:20:50.034Z,24.50
2022-09-05T12:25:15.227Z,24.45
2022-09-05T12:27:42.379Z,24.43
2022-09-05T12:31:07.052Z,24.52
2022-09-05T12:36:08.056Z,24.46
2022-09-05T12:40:43.395Z,24.45
2022-09-05T12:41:35.460Z,25.00
2022-09-05T12:41:44.903Z,24.46
2022-09-05T12:44:51.746Z,24.45
2022-09-05T12:48:05.642Z,24.41
2022-09-05T12:51:11.877Z,24.46
2022-09-05T12:54:42.795Z,24.37
2022-09-05T13:00:20.127Z,24.37
2022-09-05T13:03:05.548Z,24.31
2022-09-05T13:05:02.024Z,24.37
2022-09-05T13:08:05.706Z,24.35
2022-09-05T13:14:46.573Z,24.37
2022-09-05T13:14:55.028Z,24.26
2022-09-05T13:18:07.669Z,24.28
2022-09-05T13:21:23.262Z,24.30
2022-09-05T13:24:30.799Z,24.37
2022-09-05T13:27:40.746Z,24.37
2022-09-05T13:34:16.170Z,24.40
2022-09-05T13:38:13.810Z,24.36
2022-09-05T13:38:30.548Z,24.41
2022-09-05T13:41:28.374Z,24.40
2022-09-05T13:44:40.434Z,24.37
2022-09-05T13:48:05.014Z,24.37
2022-09-05T13:51:27.602Z,24.43
2022-09-05T13:54:39.258Z,24.38
2022-09-05T13:57:47.411Z,24.37
2022-09-05T14:01:15.088Z,24.37
2022-09-05T14:05:14.824Z,24.26
2022-09-05T14:09:35.012Z,24.35
2022-09-05T14:12:29.701Z,24.36
2022-09-05T14:15:43.640Z,24.35
2022-09-05T14:19:03.116Z,24.36
2022-09-05T14:22:08.776Z,24.29
2022-09-05T14:25:34.631Z,24.47
2022-09-05T14:28:58.199Z,24.44
2022-09-05T14:37:46.700Z,24.51
2022-09-05T14:37:51.595Z,24.56
2022-09-05T14:39:53.545Z,24.57
2022-09-05T14:43:14.145Z,24.51
2022-09-05T14:46:33.581Z,24.50
2022-09-05T14:49:55.198Z,24.47
2022-09-05T14:59:35.403Z,24.44
2022-09-05T15:02:53.441Z,24.36
2022-09-05T15:03:23.628Z,24.31
2022-09-05T15:06:32.772Z,24.29
2022-09-05T15:11:25.413Z,24.29
2022-09-05T15:13:04.198Z,24.27
2022-09-05T15:16:10.389Z,24.27
2022-09-05T15:20:04.951Z,24.24
2022-09-05T15:23:16.762Z,24.23
2022-09-05T15:26:25.809Z,24.40
2022-09-05T15:29:31.799Z,24.33
2022-09-05T15:32:38.094Z,24.33
2022-09-05T15:35:44.297Z,24.34
2022-09-05T15:38:55.318Z,24.41
2022-09-05T15:42:12.533Z,24.42
2022-09-05T15:45:21.460Z,24.36
2022-09-05T15:48:26.536Z,24.38
2022-09-05T15:51:48.083Z,24.22
2022-09-05T15:54:53.865Z,24.11
2022-09-05T15:58:01.498Z,24.08
2022-09-05T16:01:17.059Z,23.98
2022-09-05T16:10:27.442Z,23.92
2022-09-05T16:10:46.155Z,23.87
2022-09-05T16:15:23.136Z,23.77
2022-09-05T16:23:20.433Z,23.81
2022-09-05T16:23:29.336Z,23.77
2022-09-05T16:25:17.590Z,23.79
2022-09-05T16:28:24.596Z,23.84
2022-09-05T16:31:39.466Z,23.85
2022-09-05T16:34:49.825Z,23.82
2022-09-05T16:37:56.280Z,23.78
2022-09-05T16:41:07.333Z,23.73
2022-09-05T16:44:23.742Z,23.70
2022-09-05T16:47:36.440Z,23.67
2022-09-05T16:50:50.099Z,23.64
2022-09-05T16:53:58.630Z,23.58
2022-09-05T16:57:07.089Z,23.49
2022-09-05T17:00:11.462Z,23.41
2022-09-05T17:03:33.619Z,23.28
2022-09-05T17:06:45.832Z,23.13
2022-09-05T17:09:48.805Z,23.01
2022-09-05T17:12:54.137Z,22.89
2022-09-05T17:16:00.404Z,22.75
2022-09-05T17:19:04.159Z,22.65
2022-09-05T17:29:11.442Z,22.55
2022-09-05T17:29:30.887Z,22.43
2022-09-05T17:29:49.405Z,22.46
2022-09-05T17:32:47.124Z,22.36
2022-09-05T17:36:09.971Z,22.29
2022-09-05T17:39:32.962Z,22.19
2022-09-05T17:42:56.507Z,22.14
2022-09-05T17:46:16.827Z,22.11
2022-09-05T17:49:42.911Z,21.98
2022-09-05T17:53:26.819Z,21.97
2022-09-05T17:56:36.070Z,21.90
2022-09-05T17:59:38.980Z,21.77
2022-09-05T18:02:56.235Z,21.54
2022-09-05T18:06:03.895Z,21.47
2022-09-05T18:09:11.967Z,21.40
2022-09-05T18:13:14.101Z,21.28
2022-09-05T18:16:14.265Z,21.30
2022-09-05T18:19:57.715Z,21.20
2022-09-05T18:23:37.494Z,21.12
2022-09-05T18:26:41.971Z,20.98
2022-09-05T18:29:57.974Z,21.03
2022-09-05T18:33:55.808Z,21.11
2022-09-05T18:36:45.622Z,21.03
2022-09-05T18:40:06.107Z,21.06
2022-09-05T18:43:19.461Z,21.02
2022-09-05T18:46:26.512Z,21.04
2022-09-05T18:50:22.064Z,21.02
2022-09-05T18:53:09.586Z,20.95
2022-09-05T18:56:27.263Z,20.92
2022-09-05T18:59:34.884Z,20.85
2022-09-05T19:02:51.512Z,20.82
2022-09-05T19:06:37.082Z,20.77
2022-09-05T19:09:32.904Z,20.70
2022-09-05T19:12:53.240Z,20.69
2022-09-05T19:16:21.195Z,20.63
2022-09-05T19:19:24.772Z,20.66
2022-09-05T19:23:08.732Z,20.62
2022-09-05T19:25:57.302Z,20.53
2022-09-05T19:36:47.152Z,20.50
2022-09-05T19:37:04.775Z,20.45
2022-09-05T19:37:06.618Z,20.42
2022-09-05T19:44:11.090Z,20.35
2022-09-05T19:47:26.163Z,20.32
2022-09-05T19:47:44.915Z,20.29
2022-09-05T19:49:40.040Z,20.27
2022-09-05T19:52:42.941Z,20.16
2022-09-05T19:55:46.924Z,20.10
2022-09-05T19:58:51.892Z,20.04
2022-09-05T20:01:54.762Z,20.03
2022-09-05T20:05:01.226Z,19.89
2022-09-05T20:08:14.131Z,19.92
2022-09-05T20:11:37.238Z,19.90
2022-09-05T20:14:50.600Z,19.80
2022-09-05T20:17:55.092Z,19.80
2022-09-05T20:21:02.169Z,19.72
2022-09-05T20:24:05.597Z,19.81
2022-09-05T20:27:10.107Z,19.83
2022-09-05T20:30:27.190Z,19.98
2022-09-05T20:33:35.177Z,19.99
2022-09-05T20:43:11.840Z,19.51
2022-09-05T20:43:22.838Z,19.58
2022-09-05T20:43:53.732Z,19.60
2022-09-05T20:51:36.546Z,19.62
2022-09-05T20:54:12.985Z,19.62
2022-09-05T20:54:18.046Z,19.61
2022-09-05T20:57:22.897Z,19.64
2022-09-05T21:00:29.129Z,19.46
2022-09-05T21:03:40.729Z,19.56
2022-09-05T21:06:44.634Z,19.43
2022-09-05T21:09:52.901Z,19.55
2022-09-05T21:12:58.109Z,19.60
2022-09-05T21:16:01.697Z,19.56
2022-09-05T21:19:06.168Z,19.56
2022-09-05T21:22:21.215Z,19.52
2022-09-05T21:25:28.271Z,19.52
2022-09-05T21:29:04.555Z,19.54
2022-09-05T21:32:11.840Z,19.57
2022-09-05T21:35:34.591Z,19.56
2022-09-05T21:38:41.665Z,19.55
2022-09-05T21:41:48.889Z,19.50
2022-09-05T21:47:49.090Z,19.47
2022-09-05T21:48:20.651Z,19.44
2022-09-05T21:51:27.503Z,19.48
2022-09-05T21:59:13.827Z,19.46
2022-09-05T21:59:24.925Z,19.44
2022-09-05T22:01:19.866Z,19.47
2022-09-05T22:04:42.696Z,19.43
2022-09-05T22:07:48.571Z,19.47
2022-09-05T22:10:52.871Z,19.46
2022-09-05T22:13:57.036Z,19.48
2022-09-05T22:17:01.428Z,19.41
2022-09-05T22:20:07.076Z,19.39
2022-09-05T22:23:11.925Z,19.42
2022-09-05T22:26:16.703Z,19.43
2022-09-05T22:29:19.488Z,19.43
2022-09-05T22:32:34.610Z,19.38
2022-09-05T22:35:40.252Z,19.41
2022-09-05T22:38:44.385Z,19.42
2022-09-05T22:41:47.146Z,19.40
2022-09-05T22:44:49.908Z,19.40
2022-09-05T22:47:52.946Z,19.37
2022-09-05T22:50:55.807Z,19.34
2022-09-05T22:53:59.958Z,19.33
2022-09-05T22:57:03.154Z,19.33
2022-09-05T23:00:07.311Z,19.31
2022-09-05T23:03:10.333Z,19.28
2022-09-05T23:06:13.463Z,19.26
2022-09-05T23:09:17.731Z,19.28
2022-09-05T23:12:20.487Z,19.29
2022-09-05T23:15:23.550Z,19.29
2022-09-05T23:18:26.560Z,19.22
2022-09-05T23:21:29.556Z,19.18
2022-09-05T23:24:33.690Z,19.09
2022-09-05T23:27:37.247Z,19.16
2022-09-05T23:30:40.712Z,19.17
2022-09-05T23:33:43.549Z,19.15
2022-09-05T23:36:46.607Z,19.15
2022-09-05T23:39:50.754Z,19.22
2022-09-05T23:42:55.627Z,19.24
2022-09-05T23:45:58.598Z,19.19
2022-09-05T23:49:01.397Z,19.06
2022-09-05T23:52:04.530Z,19.05
2022-09-05T23:55:09.827Z,19.01
2022-09-05T23:58:13.398Z,18.96
